createdAt,value
2023-02-06T00:01:53.732Z,14
2023-02-06T00:07:53.754Z,13
2023-02-06T00:13:53.712Z,13
2023-02-06T00:19:53.731Z,8
2023-02-06T00:25:53.711Z,12
2023-02-06T00:31:53.712Z,10
2023-02-06T00:37:53.754Z,8
2023-02-06T00:43:53.708Z,11
2023-02-06T00:49:53.715Z,10
2023-02-06T00:55:53.738Z,16
2023-02-06T01:01:53.741Z,12
2023-02-06T01:07:53.695Z,13
2023-02-06T01:13:53.724Z,11
2023-02-06T01:19:53.705Z,16
2023-02-06T01:25:53.746Z,16
2023-02-06T01:31:53.751Z,18
2023-02-06T01:37:53.700Z,15
2023-02-06T01:43:53.703Z,20
2023-02-06T01:49:53.702Z,17
2023-02-06T01:55:53.694Z,19
2023-02-06T02:01:53.736Z,16
2023-02-06T02:07:53.732Z,13
2023-02-06T02:13:53.687Z,13
2023-02-06T02:19:53.697Z,17
2023-02-06T02:25:53.726Z,11
2023-02-06T02:31:53.681Z,13
2023-02-06T02:37:53.702Z,12
2023-02-06T02:43:53.708Z,13
2023-02-06T02:49:53.670Z,14
2023-02-06T02:55:53.684Z,14
2023-02-06T03:01:53.715Z,11
2023-02-06T03:07:53.731Z,12
2023-02-06T03:13:53.677Z,11
2023-02-06T03:19:53.690Z,12
2023-02-06T03:25:53.701Z,15
2023-02-06T03:31:53.740Z,16
2023-02-06T03:37:53.734Z,13
2023-02-06T03:43:53.694Z,14
2023-02-06T03:49:53.696Z,15
2023-02-06T03:55:53.763Z,19
2023-02-06T04:01:53.686Z,19
2023-02-06T04:07:53.702Z,16
2023-02-06T04:13:53.702Z,17
2023-02-06T04:19:53.691Z,26
2023-02-06T04:25:53.702Z,20
2023-02-06T04:31:53.700Z,21
2023-02-06T04:37:53.701Z,32
2023-02-06T04:43:53.681Z,27
2023-02-06T04:49:53.709Z,26
2023-02-06T04:55:53.676Z,22
2023-02-06T05:01:53.699Z,21
2023-02-06T05:07:53.711Z,23
2023-02-06T05:13:53.676Z,21
2023-02-06T05:19:53.676Z,23
2023-02-06T05:25:53.853Z,23
2023-02-06T05:31:53.819Z,25
2023-02-06T05:37:53.677Z,25
2023-02-06T05:43:53.693Z,27
2023-02-06T05:49:53.653Z,25
2023-02-06T05:55:53.660Z,23
2023-02-06T06:01:53.687Z,51
2023-02-06T06:07:53.656Z,62
2023-02-06T06:13:53.661Z,27
2023-02-06T06:19:53.755Z,33
2023-02-06T06:25:53.675Z,31
2023-02-06T06:31:53.745Z,30
2023-02-06T06:37:53.686Z,41
2023-02-06T06:43:53.666Z,36
2023-02-06T06:49:53.642Z,36
2023-02-06T06:55:53.690Z,36
2023-02-06T07:01:53.662Z,31
2023-02-06T07:07:53.661Z,36
2023-02-06T07:13:53.682Z,34
2023-02-06T07:19:53.659Z,31
2023-02-06T07:25:53.643Z,36
2023-02-06T07:31:53.767Z,35
2023-02-06T07:37:53.677Z,67
2023-02-06T07:43:53.647Z,38
2023-02-06T07:49:53.698Z,23
2023-02-06T07:55:53.629Z,28
2023-02-06T08:01:53.645Z,55
2023-02-06T08:07:53.679Z,31
2023-02-06T08:13:53.637Z,25
2023-02-06T08:19:53.679Z,26
2023-02-06T08:25:53.837Z,34
2023-02-06T08:31:53.744Z,30
2023-02-06T08:37:53.671Z,34
2023-02-06T08:43:53.653Z,35
2023-02-06T08:49:53.639Z,35
2023-02-06T08:55:53.820Z,27
2023-02-06T09:01:53.672Z,26
2023-02-06T09:07:53.644Z,26
2023-02-06T09:13:53.627Z,28
2023-02-06T09:19:53.710Z,31
2023-02-06T09:25:53.609Z,29
2023-02-06T09:31:53.631Z,28
2023-02-06T09:37:53.672Z,29
2023-02-06T09:43:53.616Z,33
2023-02-06T09:49:53.635Z,27
2023-02-06T09:55:53.646Z,27
2023-02-06T10:01:53.640Z,22
2023-02-06T10:07:53.634Z,29
2023-02-06T10:13:53.650Z,24
2023-02-06T10:19:53.628Z,24
2023-02-06T10:25:53.611Z,26
2023-02-06T10:31:53.722Z,25
2023-02-06T10:37:53.638Z,23
2023-02-06T10:43:53.619Z,19
2023-02-06T10:49:53.655Z,19
2023-02-06T10:55:54.004Z,24
2023-02-06T11:01:53.701Z,24
2023-02-06T11:07:53.801Z,20
2023-02-06T11:13:53.740Z,19
2023-02-06T11:19:53.619Z,21
2023-02-06T11:25:53.708Z,21
2023-02-06T11:31:53.812Z,19
2023-02-06T11:37:53.721Z,22
2023-02-06T11:43:53.657Z,21
2023-02-06T11:49:53.629Z,25
2023-02-06T11:55:53.620Z,24
2023-02-06T12:01:53.693Z,24
2023-02-06T12:07:53.650Z,19
2023-02-06T12:13:53.624Z,19
2023-02-06T12:19:53.640Z,27
2023-02-06T12:25:53.622Z,20
2023-02-06T12:31:53.740Z,21
2023-02-06T12:37:53.632Z,21
2023-02-06T12:43:53.605Z,20
2023-02-06T12:49:53.616Z,19
2023-02-06T12:55:53.888Z,22
2023-02-06T13:01:53.631Z,21
2023-02-06T13:07:53.635Z,21
2023-02-06T13:13:53.646Z,24
2023-02-06T13:19:53.624Z,22
2023-02-06T13:25:53.667Z,23
2023-02-06T13:31:53.733Z,19
2023-02-06T13:37:53.618Z,22
2023-02-06T13:43:53.601Z,21
2023-02-06T13:49:53.637Z,22
2023-02-06T13:55:53.597Z,28
2023-02-06T14:01:53.690Z,23
2023-02-06T14:07:53.674Z,27
2023-02-06T14:13:53.619Z,24
2023-02-06T14:19:53.606Z,24
2023-02-06T14:25:53.622Z,17
2023-02-06T14:31:53.703Z,17
2023-02-06T14:37:53.661Z,12
2023-02-06T14:43:53.662Z,11
2023-02-06T14:49:53.677Z,11
2023-02-06T14:55:53.616Z,10
2023-02-06T15:02:03.988Z,9
2023-02-06T15:07:53.615Z,7
2023-02-06T15:13:53.583Z,8
2023-02-06T15:19:53.628Z,7
2023-02-06T15:25:53.661Z,9
2023-02-06T15:31:53.612Z,9
2023-02-06T15:37:53.639Z,9
2023-02-06T15:43:53.572Z,8
2023-02-06T15:49:53.588Z,10
2023-02-06T15:55:53.606Z,8
2023-02-06T16:01:53.675Z,11
2023-02-06T16:08:03.876Z,12
2023-02-06T16:13:53.640Z,10
2023-02-06T16:19:53.580Z,11
2023-02-06T16:25:53.590Z,10
2023-02-06T16:31:53.719Z,8
2023-02-06T16:37:53.594Z,10
2023-02-06T16:43:53.576Z,6
2023-02-06T16:49:53.624Z,10
2023-02-06T16:55:53.557Z,10
2023-02-06T17:01:53.591Z,10
2023-02-06T17:07:53.609Z,13
2023-02-06T17:13:53.627Z,14
2023-02-06T17:19:53.599Z,14
2023-02-06T17:25:53.591Z,10
2023-02-06T17:31:53.617Z,14
2023-02-06T17:37:53.594Z,13
2023-02-06T17:43:53.626Z,13
2023-02-06T17:49:53.588Z,18
2023-02-06T17:55:53.608Z,15
2023-02-06T18:01:53.718Z,13
2023-02-06T18:07:53.589Z,18
2023-02-06T18:13:53.835Z,17
2023-02-06T18:19:53.630Z,20
2023-02-06T18:25:53.592Z,16
2023-02-06T18:31:53.607Z,13
2023-02-06T18:37:53.587Z,22
2023-02-06T18:43:53.568Z,15
2023-02-06T18:49:53.578Z,14
2023-02-06T18:55:53.587Z,16
2023-02-06T19:01:53.575Z,18
2023-02-06T19:07:53.600Z,16
2023-02-06T19:13:53.960Z,12
2023-02-06T19:19:53.540Z,15
2023-02-06T19:25:53.552Z,15
2023-02-06T19:31:53.837Z,13
2023-02-06T19:37:53.803Z,17
2023-02-06T19:43:53.600Z,16
2023-02-06T19:49:53.671Z,19
2023-02-06T19:55:53.548Z,16
2023-02-06T20:01:53.540Z,14
2023-02-06T20:07:53.569Z,16
2023-02-06T20:13:53.558Z,14
2023-02-06T20:19:53.530Z,19
2023-02-06T20:25:53.555Z,13
2023-02-06T20:31:53.712Z,16
2023-02-06T20:37:53.545Z,15
2023-02-06T20:43:53.569Z,18
2023-02-06T20:49:53.553Z,23
2023-02-06T20:55:53.563Z,16
2023-02-06T21:01:53.561Z,13
2023-02-06T21:07:53.521Z,14
2023-02-06T21:13:53.522Z,16
2023-02-06T21:20:03.872Z,14
2023-02-06T21:25:53.533Z,18
2023-02-06T21:32:07.255Z,22
2023-02-06T21:37:53.572Z,39
2023-02-06T21:43:53.520Z,31
2023-02-06T21:49:53.532Z,27
2023-02-06T21:55:53.570Z,36
2023-02-06T22:01:53.571Z,34
2023-02-06T22:07:53.514Z,20
2023-02-06T22:13:53.540Z,22
2023-02-06T22:19:53.522Z,19
2023-02-06T22:25:53.510Z,24
2023-02-06T22:31:53.546Z,23
2023-02-06T22:37:53.515Z,18
2023-02-06T22:43:53.515Z,23
2023-02-06T22:49:53.535Z,22
2023-02-06T22:55:53.552Z,21
2023-02-06T23:01:53.529Z,20
2023-02-06T23:07:53.537Z,23
2023-02-06T23:13:53.491Z,21
2023-02-06T23:19:53.522Z,21
2023-02-06T23:25:53.545Z,19
2023-02-06T23:31:53.577Z,14
2023-02-06T23:37:53.508Z,17
2023-02-06T23:43:53.532Z,13
2023-02-06T23:49:53.473Z,16
2023-02-06T23:55:53.482Z,12
